This is the latest recevied weather packets stored in our database for station/object HB9TVK-13. If no packets are shown the sender has not sent any weather packets the latest 10 day(s).
| Time | Temp. | Humidity | Pressure | Rain* | Wind** | Luminosity | Snow |
|---|---|---|---|---|---|---|---|
| 1777787237 | 12.22° C | 81% | 1017.7 hPa | 0 mm | - | - | - |
| 1777786637 | 12.78° C | 80% | 1017.7 hPa | 0 mm | - | - | - |
| 1777786038 | 13.33° C | 78% | 1017.6 hPa | 0 mm | - | - | - |
| 1777785435 | 13.33° C | 78% | 1017.5 hPa | 0 mm | - | - | - |
| 1777784836 | 13.33° C | 78% | 1017.5 hPa | 0 mm | - | - | - |
| 1777784236 | 12.78° C | 78% | 1017.4 hPa | 0 mm | - | - | - |
| 1777783637 | 12.78° C | 79% | 1017.2 hPa | 0 mm | - | - | - |
| 1777783037 | 11.67° C | 80% | 1017.2 hPa | 0 mm | - | - | - |
| 1777782437 | 11.67° C | 76% | 1017.2 hPa | 0 mm | - | - | - |
| 1777781837 | 11.67° C | 74% | 1017.4 hPa | 0 mm | - | - | - |
| 1777781235 | 12.22° C | 71% | 1017.4 hPa | 0 mm | - | - | - |
| 1777780635 | 11.67° C | 74% | 1017.2 hPa | 0 mm | - | - | - |
| 1777780036 | 11.11° C | 77% | 1017.3 hPa | 0 mm | - | - | - |
| 1777779436 | 11.67° C | 79% | 1017.2 hPa | 0 mm | - | - | - |
| 1777778837 | 11.11° C | 81% | 1017.4 hPa | 0 mm | - | - | - |
| 1777778237 | 11.67° C | 79% | 1017.3 hPa | 0 mm | - | - | - |
| 1777777638 | 12.78° C | 77% | 1017.6 hPa | 0 mm | - | - | - |
| 1777777035 | 13.33° C | 75% | 1017.7 hPa | 0 mm | - | - | - |
| 1777776436 | 12.78° C | 76% | 1017.8 hPa | 0 mm | - | - | - |
| 1777775836 | 12.78° C | 74% | 1018 hPa | 0 mm | - | - | - |
| 1777775237 | 13.33° C | 73% | 1018 hPa | 0 mm | - | - | - |
| 1777774637 | 13.33° C | 74% | 1018.1 hPa | 0 mm | - | - | - |
| 1777774037 | 13.33° C | 73% | 1018.1 hPa | 0 mm | - | - | - |
| 1777773437 | 13.33° C | 74% | 1018.2 hPa | 0 mm | - | - | - |
| 1777772836 | 12.78° C | 76% | 1018.2 hPa | 0 mm | - | - | - |
* Rain latest hour (hover to see other rain measurements)
** Current wind speed in m/s (hover to see current wind gust speed)